createdAt,value
2022-09-07T00:03:24.454Z,10.88
2022-09-07T00:13:29.726Z,8.32
2022-09-07T00:23:35.010Z,11.90
2022-09-07T00:33:37.815Z,7.72
2022-09-07T00:43:44.393Z,8.82
2022-09-07T00:53:53.825Z,7.53
2022-09-07T01:03:59.797Z,9.38
2022-09-07T01:14:04.117Z,14.50
2022-09-07T01:24:36.466Z,6.28
2022-09-07T01:34:44.447Z,7.50
2022-09-07T01:44:51.156Z,9.00
2022-09-07T01:54:59.567Z,8.13
2022-09-07T02:05:07.085Z,10.50
2022-09-07T02:15:15.882Z,11.98
2022-09-07T02:25:22.988Z,9.20
2022-09-07T02:35:27.203Z,9.75
2022-09-07T02:45:36.728Z,14.35
2022-09-07T02:55:51.184Z,11.00
2022-09-07T03:05:58.555Z,16.13
2022-09-07T03:16:03.317Z,13.30
2022-09-07T03:26:06.534Z,16.40
2022-09-07T03:36:10.935Z,14.45
2022-09-07T03:46:18.118Z,15.45
2022-09-07T03:56:24.223Z,13.73
2022-09-07T04:06:27.073Z,15.32
2022-09-07T04:16:31.815Z,18.55
2022-09-07T04:26:37.009Z,22.90
2022-09-07T04:36:41.112Z,19.27
2022-09-07T04:46:44.011Z,16.45
2022-09-07T04:56:48.081Z,20.92
2022-09-07T05:06:50.798Z,16.58
2022-09-07T05:16:54.945Z,17.23
2022-09-07T05:26:59.517Z,15.38
2022-09-07T05:37:03.902Z,19.05
2022-09-07T05:47:06.948Z,18.67
2022-09-07T05:57:13.566Z,22.85
2022-09-07T06:07:23.741Z,17.15
2022-09-07T06:17:28.766Z,18.58
2022-09-07T06:27:31.658Z,17.27
2022-09-07T06:37:35.888Z,18.83
2022-09-07T06:47:38.802Z,18.35
2022-09-07T06:57:42.908Z,22.30
2022-09-07T07:07:45.636Z,29.95
2022-09-07T07:17:58.120Z,20.20
2022-09-07T07:48:49.482Z,16.15
2022-09-07T07:58:53.662Z,16.92
2022-09-07T08:08:57.041Z,16.45
2022-09-07T08:19:01.104Z,14.65
2022-09-07T08:29:03.935Z,17.52
2022-09-07T08:39:08.007Z,17.73
2022-09-07T08:49:17.305Z,16.67
2022-09-07T08:59:25.364Z,15.80
2022-09-07T09:09:39.056Z,11.70
2022-09-07T09:19:58.324Z,14.23
2022-09-07T09:30:01.041Z,13.95
2022-09-07T09:40:06.932Z,13.20
2022-09-07T10:11:18.779Z,10.13
2022-09-07T10:21:28.532Z,10.23
2022-09-07T10:31:32.705Z,11.15
2022-09-07T10:41:46.651Z,11.63
2022-09-07T10:52:00.864Z,11.13
2022-09-07T11:02:14.933Z,15.65
2022-09-07T11:12:23.835Z,11.85
2022-09-07T11:22:36.636Z,11.27
2022-09-07T11:32:47.230Z,10.57
2022-09-07T11:42:55.734Z,12.40
2022-09-07T12:03:38.101Z,12.75
2022-09-07T12:14:09.143Z,8.23
2022-09-07T12:24:39.938Z,9.15
2022-09-07T12:35:00.595Z,9.80
2022-09-07T12:45:40.832Z,8.63
2022-09-07T12:56:17.196Z,12.27
2022-09-07T13:07:05.822Z,10.05
2022-09-07T13:17:44.818Z,9.70
2022-09-07T13:27:53.105Z,8.63
2022-09-07T13:37:59.840Z,5.43
2022-09-07T13:48:14.892Z,9.15
2022-09-07T13:58:22.241Z,9.32
2022-09-07T14:08:27.716Z,4.97
2022-09-07T14:18:32.834Z,4.57
2022-09-07T14:28:39.376Z,4.20
2022-09-07T14:49:20.349Z,3.38
2022-09-07T14:59:42.315Z,6.53
2022-09-07T15:09:44.993Z,4.20
2022-09-07T15:19:50.315Z,3.60
2022-09-07T15:29:53.089Z,3.80
2022-09-07T15:39:57.318Z,5.18
2022-09-07T15:50:00.032Z,4.95
2022-09-07T16:00:06.154Z,5.13
2022-09-07T16:10:09.850Z,10.68
2022-09-07T16:20:14.323Z,4.20
2022-09-07T16:30:17.012Z,5.20
2022-09-07T16:40:21.075Z,4.43
2022-09-07T16:50:23.717Z,5.90
2022-09-07T17:00:31.303Z,4.57
2022-09-07T17:10:36.225Z,5.55
2022-09-07T17:20:40.700Z,6.90
2022-09-07T17:30:45.207Z,5.47
2022-09-07T17:40:49.259Z,5.15
2022-09-07T17:51:01.135Z,4.65
2022-09-07T18:01:07.555Z,5.65
2022-09-07T18:21:38.387Z,6.15
2022-09-07T18:31:41.138Z,6.65
2022-09-07T18:41:45.751Z,5.28
2022-09-07T19:02:13.618Z,5.82
2022-09-07T19:12:16.807Z,8.02
2022-09-07T19:22:20.961Z,7.70
2022-09-07T19:32:25.519Z,7.85
2022-09-07T19:42:29.640Z,5.82
2022-09-07T19:52:32.407Z,6.07
2022-09-07T20:02:36.534Z,6.32
2022-09-07T20:12:39.233Z,6.70
2022-09-07T20:22:43.252Z,9.48
2022-09-07T20:32:45.943Z,9.27
2022-09-07T20:42:50.021Z,10.90
2022-09-07T20:52:53.807Z,11.93
2022-09-07T21:02:58.569Z,11.00
2022-09-07T21:13:01.223Z,14.27
2022-09-07T21:23:05.547Z,11.55
2022-09-07T21:33:08.319Z,13.32
2022-09-07T21:43:12.406Z,11.32
2022-09-07T21:53:15.186Z,12.40
2022-09-07T22:03:19.266Z,13.85
2022-09-07T22:13:21.978Z,13.43
2022-09-07T22:23:26.014Z,12.75
2022-09-07T22:33:28.675Z,19.95
2022-09-07T22:43:32.777Z,14.90
2022-09-07T22:53:36.865Z,16.15
2022-09-07T23:03:40.901Z,19.95
2022-09-07T23:13:43.679Z,16.27
2022-09-07T23:23:52.066Z,19.75
2022-09-07T23:33:54.955Z,19.75
2022-09-07T23:43:59.282Z,17.52
2022-09-07T23:54:02.269Z,18.17
